Time;durP1;ratioP1;P1;durP2;ratioP2;P2;SDS_P1;SDS_P2;PMS_P1;PMS_P2;Temp;Humidity;BMP_temperature;BMP_pressure;BME280_temperature;BME280_humidity;BME280_pressure;Samples;Min_cycle;Max_cycle;Signal;HPM_P1;HPM_P2
2022/03/14 00:01:55;;;;;;;1.45;1.38;;;;;;;12.54;56.96;101392.03;3584044;40;20068;-63
2022/03/14 00:04:20;;;;;;;1.60;1.50;;;;;;;12.50;57.02;101391.38;3581682;40;20146;-63
2022/03/14 00:06:49;;;;;;;2.25;1.70;;;;;;;12.51;57.26;101397.63;3583087;40;20048;-63
2022/03/14 00:09:18;;;;;;;2.35;2.15;;;;;;;12.51;57.50;101405.72;3582097;40;20314;-63
2022/03/14 00:11:44;;;;;;;2.22;2.03;;;;;;;12.50;57.61;101401.28;3581802;39;20053;-63
2022/03/14 00:14:10;;;;;;;3.42;1.80;;;;;;;12.40;57.27;101383.91;3583442;40;20390;-63
2022/03/14 00:16:40;;;;;;;1.85;1.75;;;;;;;12.49;57.01;101410.31;3581114;40;20133;-63
2022/03/14 00:19:07;;;;;;;1.80;1.70;;;;;;;12.47;57.24;101412.25;3582651;40;20039;-63
2022/03/14 00:21:39;;;;;;;5.38;1.95;;;;;;;12.40;57.23;101402.78;3579248;40;20044;-63
2022/03/14 00:24:08;;;;;;;1.85;1.75;;;;;;;12.42;57.43;101417.91;3579881;40;20044;-63
2022/03/14 00:26:34;;;;;;;2.10;1.90;;;;;;;12.41;57.71;101412.63;3581505;40;20052;-63
2022/03/14 00:29:01;;;;;;;2.20;2.00;;;;;;;12.43;57.84;101424.16;3585556;40;20050;-63
2022/03/14 00:31:26;;;;;;;2.35;2.00;;;;;;;12.44;58.04;101428.63;3582345;40;20349;-63
2022/03/14 00:33:52;;;;;;;2.10;1.90;;;;;;;12.40;57.58;101425.25;3583708;40;20047;-63
2022/03/14 00:36:19;;;;;;;2.30;2.10;;;;;;;12.37;57.67;101428.13;3581329;40;20059;-63
2022/03/14 00:38:46;;;;;;;2.30;2.00;;;;;;;12.38;57.37;101426.28;3582401;40;20064;-63
2022/03/14 00:41:16;;;;;;;1.90;1.80;;;;;;;12.34;57.68;101428.31;3582582;40;20055;-63
2022/03/14 00:43:42;;;;;;;2.28;2.00;;;;;;;12.32;58.40;101441.00;3578569;40;20057;-63
2022/03/14 00:46:07;;;;;;;2.60;2.40;;;;;;;12.29;58.56;101444.72;3585067;40;20060;-63
2022/03/14 00:48:34;;;;;;;2.25;2.00;;;;;;;12.33;58.30;101448.09;3578677;40;20106;-63
2022/03/14 00:51:01;;;;;;;2.50;2.30;;;;;;;12.34;57.95;101448.97;3580609;40;20059;-63
2022/03/14 00:53:27;;;;;;;2.20;2.10;;;;;;;12.35;58.45;101456.13;3578725;40;20052;-63
2022/03/14 00:55:53;;;;;;;1.92;1.83;;;;;;;12.36;58.22;101453.31;3578449;40;20312;-63
2022/03/14 00:58:18;;;;;;;2.25;2.05;;;;;;;12.34;59.63;101459.75;3579114;40;20158;-63
2022/03/14 01:00:47;;;;;;;2.28;1.90;;;;;;;12.13;59.34;101427.72;3578108;39;20189;-63
2022/03/14 01:03:12;;;;;;;2.40;2.20;;;;;;;12.23;59.90;101463.09;3579011;40;20055;-63
2022/03/14 01:05:38;;;;;;;3.88;2.15;;;;;;;10.93;60.09;101239.88;3580231;40;20068;-63
2022/03/14 01:08:06;;;;;;;2.67;2.42;;;;;;;12.15;59.71;101451.91;3583547;40;20048;-63
2022/03/14 01:10:32;;;;;;;2.60;2.40;;;;;;;12.21;59.63;101473.97;3582526;40;20048;-63
2022/03/14 01:12:58;;;;;;;2.80;2.60;;;;;;;12.16;60.14;101473.38;3583040;40;20295;-63
2022/03/14 01:15:24;;;;;;;3.10;2.50;;;;;;;12.17;59.57;101469.72;3582373;40;20482;-63
2022/03/14 01:17:50;;;;;;;2.80;2.55;;;;;;;12.18;59.74;101473.25;3585168;40;20063;-63
2022/03/14 01:20:16;;;;;;;3.63;2.28;;;;;;;12.16;60.25;101478.75;3574935;40;20051;-63
2022/03/14 01:22:41;;;;;;;2.83;2.60;;;;;;;12.11;60.91;101478.16;3581748;40;20063;-63
2022/03/14 01:25:07;;;;;;;3.20;2.90;;;;;;;12.10;60.76;101489.03;3583645;40;20074;-63
2022/03/14 01:27:34;;;;;;;2.90;2.70;;;;;;;12.06;60.71;101483.81;3583511;40;20055;-63
2022/03/14 01:29:59;;;;;;;2.53;2.30;;;;;;;12.05;60.44;101497.38;3584968;40;20104;-63
2022/03/14 01:32:25;;;;;;;3.28;2.58;;;;;;;12.02;61.22;101486.75;3581672;40;20054;-63
2022/03/14 01:34:51;;;;;;;3.15;2.47;;;;;;;12.00;60.97;101494.94;3584054;40;20063;-63
2022/03/14 01:37:18;;;;;;;2.53;2.33;;;;;;;12.02;61.16;101502.94;3583773;40;20048;-63
2022/03/14 01:39:45;;;;;;;3.13;2.83;;;;;;;12.02;61.11;101497.53;3582317;40;20142;-63
2022/03/14 01:42:20;;;;;;;3.42;2.80;;;;;;;11.99;61.25;101505.81;3582678;40;20051;-63
2022/03/14 01:44:47;;;;;;;3.03;2.72;;;;;;;11.73;60.86;101447.97;3581159;40;20391;-63
2022/03/14 01:47:14;;;;;;;4.13;2.80;;;;;;;11.82;61.20;101474.41;3582265;40;20397;-63
2022/03/14 01:49:42;;;;;;;2.70;2.50;;;;;;;11.81;61.43;101461.91;3577717;40;20056;-63
2022/03/14 01:52:08;;;;;;;3.15;2.85;;;;;;;11.98;61.62;101510.31;3584007;40;20052;-63
2022/03/14 01:54:34;;;;;;;3.42;3.13;;;;;;;11.97;61.68;101513.97;3581626;40;20068;-63
2022/03/14 01:57:00;;;;;;;2.97;2.70;;;;;;;11.98;61.62;101509.44;3584466;40;20092;-63
2022/03/14 01:59:29;;;;;;;3.30;3.00;;;;;;;11.76;61.28;101481.00;3582076;40;20048;-63
2022/03/14 02:01:58;;;;;;;3.40;3.10;;;;;;;11.95;61.19;101518.56;3582835;40;20048;-63
2022/03/14 02:04:24;;;;;;;3.67;2.85;;;;;;;11.99;61.39;101524.69;3581256;40;20369;-63
2022/03/14 02:06:53;;;;;;;3.03;2.72;;;;;;;11.98;61.11;101520.22;3584388;40;20048;-63
2022/03/14 02:09:20;;;;;;;3.30;3.00;;;;;;;11.98;61.39;101523.78;3583336;40;20044;-63
2022/03/14 02:11:57;;;;;;;4.18;2.80;;;;;;;11.97;61.79;101523.91;3580515;40;20060;-62
2022/03/14 02:14:24;;;;;;;3.45;2.83;;;;;;;11.95;62.18;101539.25;3579920;40;20056;-61
2022/03/14 02:16:51;;;;;;;3.25;2.85;;;;;;;11.94;62.34;101540.22;3580896;40;20049;-61
2022/03/14 02:19:18;;;;;;;4.07;3.35;;;;;;;11.93;61.79;101535.81;3583696;40;20394;-62
2022/03/14 02:21:45;;;;;;;3.92;3.38;;;;;;;11.89;62.10;101539.59;3580129;40;20472;-61
2022/03/14 02:24:11;;;;;;;3.58;3.20;;;;;;;11.89;61.92;101539.59;3585011;40;20096;-63
2022/03/14 02:26:39;;;;;;;3.75;3.30;;;;;;;11.89;62.13;101550.38;3578902;40;20071;-62
2022/03/14 02:29:09;;;;;;;4.28;3.88;;;;;;;11.91;61.99;101551.19;3588224;40;20058;-61
2022/03/14 02:31:38;;;;;;;3.30;2.97;;;;;;;11.89;62.54;101551.25;3579843;40;20065;-63
2022/03/14 02:34:06;;;;;;;3.35;2.92;;;;;;;11.91;61.80;101548.47;3581121;40;20064;-63
2022/03/14 02:36:34;;;;;;;3.65;3.30;;;;;;;11.87;62.11;101544.22;3580010;40;20056;-62
2022/03/14 02:38:59;;;;;;;4.15;3.00;;;;;;;11.87;62.52;101555.00;3581489;40;20045;-62
2022/03/14 02:41:25;;;;;;;3.70;3.30;;;;;;;11.87;62.72;101547.78;3582165;39;20051;-62
2022/03/14 02:43:51;;;;;;;4.70;3.08;;;;;;;11.82;62.60;101561.47;3579397;40;20457;-62
2022/03/14 02:46:17;;;;;;;3.00;2.80;;;;;;;11.79;62.25;101553.56;3583250;40;20080;-62
2022/03/14 02:48:43;;;;;;;3.75;3.10;;;;;;;11.64;62.53;101524.78;3579324;40;20059;-62
2022/03/14 02:51:09;;;;;;;3.80;3.00;;;;;;;11.76;62.44;101561.81;3583784;40;20147;-62
2022/03/14 02:53:35;;;;;;;3.10;2.80;;;;;;;11.74;62.66;101557.47;3579655;40;20061;-63
2022/03/14 02:56:00;;;;;;;3.33;3.03;;;;;;;11.70;62.83;101575.59;3582211;40;20063;-62
2022/03/14 02:58:28;;;;;;;3.47;3.17;;;;;;;11.69;62.80;101579.25;3583126;40;20055;-62
2022/03/14 03:00:55;;;;;;;4.10;3.38;;;;;;;11.66;62.88;101582.13;3577848;40;20253;-62
2022/03/14 03:03:21;;;;;;;3.58;2.95;;;;;;;11.65;63.02;101588.47;3580978;40;20117;-62
2022/03/14 03:05:46;;;;;;;3.05;2.75;;;;;;;11.59;63.13;101600.44;3579388;40;20065;-62
2022/03/14 03:08:13;;;;;;;4.30;3.00;;;;;;;11.56;63.38;101603.28;3581070;40;20126;-62
2022/03/14 03:10:41;;;;;;;3.60;3.13;;;;;;;11.52;62.91;101601.72;3578462;40;20112;-62
2022/03/14 03:13:07;;;;;;;3.50;3.20;;;;;;;11.51;63.48;101612.56;3579768;40;20060;-62
2022/03/14 03:15:37;;;;;;;3.38;3.08;;;;;;;11.46;63.84;101612.81;3579236;40;20044;-62
2022/03/14 03:18:04;;;;;;;4.18;2.95;;;;;;;11.45;63.67;101615.56;3580288;40;20115;-63
2022/03/14 03:20:30;;;;;;;3.35;3.00;;;;;;;11.42;63.64;101626.50;3581201;40;20048;-62
2022/03/14 03:22:56;;;;;;;2.95;2.75;;;;;;;11.39;64.16;101628.41;3579319;40;20059;-62
2022/03/14 03:25:21;;;;;;;3.88;3.50;;;;;;;11.37;64.83;101635.69;3580510;40;20096;-63
2022/03/14 03:27:47;;;;;;;3.65;3.33;;;;;;;11.30;66.17;101639.66;3579976;40;20134;-62
2022/03/14 03:30:14;;;;;;;3.70;3.40;;;;;;;11.25;66.23;101647.09;3579985;40;20123;-62
2022/03/14 03:32:40;;;;;;;4.22;3.83;;;;;;;11.14;67.30;101650.34;3578379;40;20123;-62
2022/03/14 03:35:06;;;;;;;3.50;3.20;;;;;;;11.09;67.10;101668.53;3580159;40;20411;-62
2022/03/14 03:37:32;;;;;;;4.18;3.45;;;;;;;11.02;67.42;101666.25;3579929;40;20168;-62
2022/03/14 03:39:58;;;;;;;3.97;3.58;;;;;;;10.97;68.26;101668.28;3578614;40;20122;-62
2022/03/14 03:42:23;;;;;;;3.83;3.53;;;;;;;11.00;68.60;101685.13;3579621;40;20391;-62
2022/03/14 03:44:49;;;;;;;4.72;4.10;;;;;;;10.99;67.91;101691.47;3578600;40;20060;-63
2022/03/14 03:47:14;;;;;;;4.20;3.80;;;;;;;10.97;68.10;101695.19;3582149;40;20055;-62
2022/03/14 03:49:40;;;;;;;5.20;4.18;;;;;;;10.94;68.58;101696.19;3579856;40;20059;-62
2022/03/14 03:52:07;;;;;;;4.70;4.30;;;;;;;10.89;69.05;101707.19;3581020;40;20400;-62
2022/03/14 03:54:33;;;;;;;5.13;4.63;;;;;;;10.86;69.03;101710.03;3580174;40;20060;-62
2022/03/14 03:56:59;;;;;;;4.70;4.18;;;;;;;10.79;69.74;101711.28;3582645;40;20117;-62
2022/03/14 03:59:25;;;;;;;5.47;4.45;;;;;;;10.68;69.63;101710.94;3581534;40;20052;-62
2022/03/14 04:01:52;;;;;;;5.82;4.55;;;;;;;10.65;69.57;101708.38;3600247;22;20184;-65
2022/03/14 04:04:18;;;;;;;4.88;4.35;;;;;;;10.65;70.70;101724.50;3589917;40;20083;-66
2022/03/14 04:06:44;;;;;;;7.13;4.40;;;;;;;10.65;70.96;101732.59;3589206;40;20071;-65
2022/03/14 04:09:10;;;;;;;5.03;4.43;;;;;;;10.61;70.47;101731.00;3590460;40;20650;-65
2022/03/14 04:11:41;;;;;;;5.40;4.90;;;;;;;10.60;71.40;101729.25;3590792;40;20063;-65
2022/03/14 04:14:07;;;;;;;6.05;4.57;;;;;;;10.58;72.00;101744.59;3589772;40;20067;-65
2022/03/14 04:16:33;;;;;;;6.43;4.75;;;;;;;10.58;71.53;101741.88;3588610;40;20059;-65
2022/03/14 04:18:59;;;;;;;5.45;4.80;;;;;;;10.52;72.42;101751.13;3590157;39;20078;-65
2022/03/14 04:21:25;;;;;;;6.68;4.80;;;;;;;10.49;71.83;101748.56;3588359;40;20124;-65
2022/03/14 04:23:50;;;;;;;6.50;5.10;;;;;;;10.44;72.29;101762.22;3588846;40;20058;-65
2022/03/14 04:26:16;;;;;;;5.82;5.32;;;;;;;10.42;72.72;101756.03;3589323;40;20313;-65
2022/03/14 04:28:42;;;;;;;6.07;5.28;;;;;;;10.42;72.09;101764.09;3588341;40;20040;-65
2022/03/14 04:31:09;;;;;;;6.05;5.40;;;;;;;10.42;72.05;101763.25;3591052;40;20063;-65
2022/03/14 04:33:36;;;;;;;7.03;5.97;;;;;;;10.40;72.60;101759.75;3588147;40;20063;-65
2022/03/14 04:36:04;;;;;;;6.60;5.88;;;;;;;10.46;72.50;101778.28;3588269;40;20056;-65
2022/03/14 04:38:30;;;;;;;8.55;6.25;;;;;;;10.38;71.74;101775.09;3588486;40;20077;-65
2022/03/14 04:40:57;;;;;;;7.80;6.35;;;;;;;10.36;71.85;101780.50;3588390;40;20378;-65
2022/03/14 04:43:24;;;;;;;7.90;5.50;;;;;;;10.17;72.12;101747.34;3589762;39;20133;-65
2022/03/14 04:45:50;;;;;;;9.45;6.20;;;;;;;10.34;71.82;101793.16;3589050;40;20106;-65
2022/03/14 04:48:17;;;;;;;6.32;5.82;;;;;;;10.28;71.88;101782.69;3588803;40;20099;-65
2022/03/14 04:50:43;;;;;;;7.80;6.15;;;;;;;10.19;72.39;101772.31;3587466;40;20059;-64
2022/03/14 04:53:10;;;;;;;7.93;6.18;;;;;;;10.27;71.51;101790.81;3589722;40;20063;-64
2022/03/14 04:55:36;;;;;;;7.25;6.55;;;;;;;10.18;71.83;101784.00;3577971;40;20067;-65
2022/03/14 04:58:06;;;;;;;8.38;6.43;;;;;;;10.21;72.15;101791.91;3588335;40;20083;-64
2022/03/14 05:00:34;;;;;;;7.80;7.00;;;;;;;10.23;71.92;101811.53;3588037;40;20136;-64
2022/03/14 05:03:02;;;;;;;8.07;6.53;;;;;;;10.16;72.31;101799.34;3587829;40;20056;-64
2022/03/14 05:05:28;;;;;;;8.50;6.10;;;;;;;10.19;72.04;101815.31;3590232;40;20129;-64
2022/03/14 05:07:54;;;;;;;8.65;6.68;;;;;;;10.19;72.05;101826.94;3577996;40;20052;-64
2022/03/14 05:10:20;;;;;;;7.07;6.38;;;;;;;10.18;71.85;101829.66;3589968;40;20317;-64
2022/03/14 05:12:45;;;;;;;12.70;7.35;;;;;;;10.18;72.22;101832.34;3590988;39;20056;-64
2022/03/14 05:15:17;;;;;;;7.95;7.00;;;;;;;10.18;70.99;101841.31;3590908;40;20059;-64
2022/03/14 05:17:44;;;;;;;9.10;7.32;;;;;;;10.19;71.04;101839.50;3590566;40;20052;-64
2022/03/14 05:20:11;;;;;;;9.68;7.60;;;;;;;10.18;71.01;101852.06;3589654;39;20387;-64
2022/03/14 05:22:44;;;;;;;9.95;7.95;;;;;;;10.20;71.55;101858.22;3587243;40;20071;-64
2022/03/14 05:25:11;;;;;;;10.90;8.15;;;;;;;10.19;70.75;101851.13;3590490;40;20059;-64
2022/03/14 05:27:39;;;;;;;12.68;8.85;;;;;;;10.20;70.81;101857.34;3586707;40;20104;-64
2022/03/14 05:30:08;;;;;;;11.90;8.40;;;;;;;10.18;71.57;101868.19;3588118;40;20048;-62
2022/03/14 05:32:35;;;;;;;13.23;8.75;;;;;;;10.21;71.22;101865.38;3586576;40;20091;-62
2022/03/14 05:35:02;;;;;;;13.48;8.80;;;;;;;10.23;71.31;101868.84;3587808;40;20044;-62
2022/03/14 05:37:27;;;;;;;9.93;8.73;;;;;;;10.24;71.09;101880.47;3586673;40;20305;-62
2022/03/14 05:39:53;;;;;;;14.30;9.73;;;;;;;10.23;70.66;101882.28;3589983;40;20056;-62
2022/03/14 05:42:19;;;;;;;12.70;9.38;;;;;;;10.25;70.87;101894.78;3587586;39;20302;-62
2022/03/14 05:44:45;;;;;;;11.73;9.52;;;;;;;10.23;70.83;101890.34;3588992;40;20044;-62
2022/03/14 05:47:11;;;;;;;13.32;9.52;;;;;;;10.23;71.39;101893.03;3588980;40;20450;-62
2022/03/14 05:49:37;;;;;;;14.50;9.85;;;;;;;10.23;70.73;101897.53;3587551;40;20052;-62
2022/03/14 05:52:03;;;;;;;11.93;9.40;;;;;;;10.27;71.50;101904.53;3588833;40;20379;-62
2022/03/14 05:54:29;;;;;;;11.95;9.70;;;;;;;10.25;71.31;101906.41;3579291;40;20092;-62
2022/03/14 05:56:55;;;;;;;11.43;9.45;;;;;;;10.26;71.16;101913.56;3586635;40;20088;-62
2022/03/14 05:59:21;;;;;;;12.00;9.20;;;;;;;10.26;71.38;101907.28;3587904;40;20056;-62
2022/03/14 06:01:48;;;;;;;13.52;10.05;;;;;;;10.29;71.23;101912.56;3588846;40;20059;-63
2022/03/14 06:04:14;;;;;;;13.98;10.23;;;;;;;10.12;70.80;101889.06;3591278;40;20074;-62
2022/03/14 06:06:40;;;;;;;18.02;11.15;;;;;;;10.29;71.42;101918.81;3587835;40;20053;-62
2022/03/14 06:09:05;;;;;;;12.48;10.40;;;;;;;10.29;71.19;101924.19;3590658;40;20059;-62
2022/03/14 06:11:31;;;;;;;14.95;11.05;;;;;;;10.27;70.68;101926.03;3588112;40;20074;-62
2022/03/14 06:13:57;;;;;;;15.52;11.38;;;;;;;10.31;70.59;101935.75;3587581;40;20078;-62
2022/03/14 06:16:22;;;;;;;13.32;11.32;;;;;;;10.35;70.31;101936.47;3590101;40;20378;-62
2022/03/14 06:18:48;;;;;;;15.50;11.57;;;;;;;10.35;70.51;101940.03;3576883;40;20051;-62
2022/03/14 06:21:14;;;;;;;16.27;11.43;;;;;;;10.38;71.39;101944.41;3584834;40;20055;-62
2022/03/14 06:23:40;;;;;;;14.80;12.10;;;;;;;10.35;71.38;101944.53;3587619;40;20072;-63
2022/03/14 06:26:05;;;;;;;17.67;12.63;;;;;;;10.38;70.72;101953.34;3589611;40;20059;-63
2022/03/14 06:28:31;;;;;;;17.10;12.80;;;;;;;10.39;70.78;101960.47;3586634;40;20067;-63
2022/03/14 06:30:56;;;;;;;16.52;12.65;;;;;;;10.28;71.08;101940.38;3586692;40;20054;-62
2022/03/14 06:33:22;;;;;;;16.58;12.98;;;;;;;10.40;71.25;101967.59;3591501;40;20052;-63
2022/03/14 06:35:48;;;;;;;18.50;12.88;;;;;;;10.41;71.03;101966.66;3588897;40;20052;-63
2022/03/14 06:38:13;;;;;;;16.23;13.18;;;;;;;10.30;70.82;101946.53;3587447;40;20066;-62
2022/03/14 06:40:41;;;;;;;16.40;13.32;;;;;;;10.42;71.31;101975.59;3587164;39;20052;-62
2022/03/14 06:43:08;;;;;;;17.58;13.40;;;;;;;10.42;71.51;101973.78;3590600;39;20052;-62
2022/03/14 06:45:33;;;;;;;18.08;12.50;;;;;;;10.43;71.41;101980.00;3589073;40;20060;-62
2022/03/14 06:48:00;;;;;;;16.00;12.70;;;;;;;10.43;71.13;101975.53;3587560;40;20045;-62
2022/03/14 06:50:26;;;;;;;20.05;13.68;;;;;;;10.42;70.84;101981.84;3586706;40;20046;-62
2022/03/14 06:52:52;;;;;;;18.17;12.73;;;;;;;10.40;70.81;101986.44;3586005;40;20049;-62
2022/03/14 06:55:17;;;;;;;16.92;12.88;;;;;;;10.41;71.64;101992.66;3588524;40;20054;-63
2022/03/14 06:57:43;;;;;;;17.58;12.68;;;;;;;10.41;70.61;101998.91;3586242;40;20068;-62
2022/03/14 07:00:09;;;;;;;16.63;12.05;;;;;;;10.18;70.59;101956.84;3590052;40;20361;-62
2022/03/14 07:02:40;;;;;;;17.85;12.80;;;;;;;10.43;71.03;102007.81;3587176;40;20442;-63
2022/03/14 07:05:10;;;;;;;17.80;11.95;;;;;;;10.45;70.93;102003.22;3590098;40;20052;-63
2022/03/14 07:07:35;;;;;;;16.25;11.82;;;;;;;10.44;70.34;102004.16;3576244;40;20138;-62
2022/03/14 07:10:01;;;;;;;17.40;12.32;;;;;;;10.52;70.24;102016.41;3589100;40;20048;-62
2022/03/14 07:12:26;;;;;;;16.00;11.70;;;;;;;10.53;69.64;102012.75;3585850;40;20402;-63
2022/03/14 07:14:52;;;;;;;16.25;11.70;;;;;;;10.57;70.39;102009.88;3586259;40;20051;-62
2022/03/14 07:17:18;;;;;;;18.15;12.38;;;;;;;10.52;70.18;102000.25;3587658;40;20068;-62
2022/03/14 07:19:45;;;;;;;13.10;11.52;;;;;;;10.65;69.90;102020.31;3592396;39;20070;-62
2022/03/14 07:22:19;;;;;;;17.58;11.80;;;;;;;10.66;69.36;102022.06;3591680;40;20056;-63
2022/03/14 07:24:48;;;;;;;15.45;11.73;;;;;;;10.70;69.03;102026.38;3589368;40;20049;-63
2022/03/14 07:27:15;;;;;;;17.48;12.00;;;;;;;10.73;69.42;102030.75;3587421;40;20316;-63
2022/03/14 07:29:40;;;;;;;17.20;12.00;;;;;;;10.74;68.93;102027.97;3588603;40;20062;-63
2022/03/14 07:32:07;;;;;;;15.30;11.50;;;;;;;10.75;68.89;102029.75;3590828;39;20052;-63
2022/03/14 07:34:33;;;;;;;20.67;12.00;;;;;;;10.77;69.37;102038.59;3589366;39;20153;-63
2022/03/14 07:36:58;;;;;;;14.25;11.15;;;;;;;10.84;69.34;102034.69;3591397;40;20378;-62
2022/03/14 07:39:24;;;;;;;17.98;12.35;;;;;;;10.83;68.33;102030.28;3586799;40;20398;-63
2022/03/14 07:41:49;;;;;;;16.98;11.93;;;;;;;10.88;68.46;102030.97;3590421;40;20056;-63
2022/03/14 07:44:15;;;;;;;19.00;12.75;;;;;;;10.90;68.65;102028.19;3589248;39;20052;-63
2022/03/14 07:46:40;;;;;;;16.92;11.82;;;;;;;10.93;68.83;102038.81;3586182;40;20050;-63
2022/03/14 07:49:08;;;;;;;19.70;12.85;;;;;;;10.96;68.47;102041.38;3591280;40;20083;-63
2022/03/14 07:51:33;;;;;;;16.92;12.40;;;;;;;10.99;68.24;102037.69;3590288;40;20064;-63
2022/03/14 07:53:59;;;;;;;18.17;11.98;;;;;;;11.01;68.17;102043.88;3589560;40;20040;-63
2022/03/14 07:56:25;;;;;;;17.17;12.45;;;;;;;11.03;67.70;102050.91;3586920;40;20058;-63
2022/03/14 07:58:50;;;;;;;17.48;12.50;;;;;;;11.06;67.68;102049.91;3587712;40;20268;-63
2022/03/14 08:01:17;;;;;;;18.27;13.32;;;;;;;11.07;68.23;102063.31;3588846;40;20043;-63
2022/03/14 08:03:45;;;;;;;17.02;12.73;;;;;;;11.11;67.68;102064.03;3589188;40;20080;-63
2022/03/14 08:06:11;;;;;;;20.65;12.00;;;;;;;10.93;67.61;102038.81;3588222;40;20057;-63
2022/03/14 08:08:36;;;;;;;19.15;12.63;;;;;;;11.11;67.39;102074.81;3588213;40;20074;-62
2022/03/14 08:11:04;;;;;;;20.10;12.68;;;;;;;11.14;67.94;102077.38;3588398;40;20399;-63
2022/03/14 08:13:30;;;;;;;17.75;13.35;;;;;;;11.13;67.08;102078.28;3589555;40;20072;-62
2022/03/14 08:15:56;;;;;;;19.88;13.68;;;;;;;11.14;67.21;102080.94;3591251;40;20386;-62
2022/03/14 08:18:22;;;;;;;17.15;13.05;;;;;;;11.14;67.06;102082.75;3589616;39;20050;-62
2022/03/14 08:20:50;;;;;;;18.77;13.13;;;;;;;11.15;66.99;102095.25;3589827;39;20405;-62
2022/03/14 08:23:17;;;;;;;17.17;12.38;;;;;;;11.16;67.27;102097.00;3590719;40;20089;-62
2022/03/14 08:25:42;;;;;;;21.42;12.93;;;;;;;11.19;67.51;102098.69;3591624;40;20044;-62
2022/03/14 08:28:08;;;;;;;18.70;12.05;;;;;;;11.21;66.72;102096.81;3589169;40;20111;-62
2022/03/14 08:30:34;;;;;;;16.88;12.38;;;;;;;11.26;67.27;102106.44;3586674;40;20520;-62
2022/03/14 08:33:00;;;;;;;18.67;12.25;;;;;;;11.26;66.69;102102.84;3587956;40;20052;-63
2022/03/14 08:35:27;;;;;;;18.05;11.68;;;;;;;11.29;66.83;102100.91;3584627;40;20071;-62
2022/03/14 08:37:55;;;;;;;21.77;11.27;;;;;;;11.17;66.72;102089.81;3586913;40;20048;-63
2022/03/14 08:40:25;;;;;;;18.45;11.85;;;;;;;11.30;65.92;102116.13;3592505;40;20070;-62
2022/03/14 08:42:56;;;;;;;18.65;11.57;;;;;;;11.34;66.53;102117.72;3592725;39;20056;-61
2022/03/14 08:45:25;;;;;;;18.10;11.25;;;;;;;11.41;66.15;102125.53;3590648;40;20067;-62
2022/03/14 08:47:52;;;;;;;18.90;10.90;;;;;;;11.28;65.65;102106.34;3591393;40;20051;-62
2022/03/14 08:50:18;;;;;;;18.35;11.30;;;;;;;11.44;66.03;102133.47;3592758;40;20044;-63
2022/03/14 08:52:46;;;;;;;15.55;9.95;;;;;;;11.50;66.07;102135.88;3592239;40;20095;-63
2022/03/14 08:55:11;;;;;;;18.10;10.50;;;;;;;11.57;65.52;102149.00;3592509;40;20048;-63
2022/03/14 08:57:37;;;;;;;16.30;10.50;;;;;;;11.62;64.92;102151.50;3592550;40;20114;-62
2022/03/14 09:00:04;;;;;;;17.15;9.93;;;;;;;11.66;65.02;102158.50;3593300;40;20115;-63
2022/03/14 09:02:30;;;;;;;16.42;9.60;;;;;;;11.68;64.59;102153.91;3591818;40;20063;-63
2022/03/14 09:04:56;;;;;;;15.88;9.52;;;;;;;11.72;64.62;102158.22;3589072;40;20082;-63
2022/03/14 09:07:31;;;;;;;15.45;8.82;;;;;;;11.77;64.65;102160.72;3589270;40;20059;-63
2022/03/14 09:10:12;;;;;;;13.00;8.60;;;;;;;11.85;64.03;102154.03;3592574;40;20087;-62
2022/03/14 09:12:39;;;;;;;14.52;8.85;;;;;;;12.12;64.17;102166.34;3592069;40;20054;-63
2022/03/14 09:15:07;;;;;;;13.25;8.13;;;;;;;12.34;63.68;102175.16;3587957;40;20043;-63
2022/03/14 09:17:35;;;;;;;15.10;8.57;;;;;;;12.43;62.66;102168.44;3588074;40;21560;-63
2022/03/14 09:20:01;;;;;;;14.48;9.00;;;;;;;12.52;61.45;102184.16;3591309;39;20121;-63
2022/03/14 09:22:28;;;;;;;13.70;8.95;;;;;;;12.67;62.18;102177.16;3592127;40;20104;-62
2022/03/14 09:24:55;;;;;;;16.10;8.65;;;;;;;12.90;61.27;102186.81;3592845;40;20047;-62
2022/03/14 09:27:23;;;;;;;14.80;8.73;;;;;;;13.07;60.54;102189.56;3589543;40;20048;-62
2022/03/14 09:29:50;;;;;;;14.75;7.90;;;;;;;13.25;60.14;102182.34;3592460;40;20050;-62
2022/03/14 09:32:16;;;;;;;13.75;8.15;;;;;;;13.61;59.11;102189.53;3592042;40;20088;-63
2022/03/14 09:34:42;;;;;;;11.15;7.50;;;;;;;13.58;58.28;102152.72;3592333;40;20056;-61
2022/03/14 09:37:08;;;;;;;11.68;7.32;;;;;;;13.86;57.00;102199.88;3591629;40;20633;-61
2022/03/14 09:39:34;;;;;;;10.73;7.68;;;;;;;13.67;57.02;102200.88;3588021;40;20051;-61
2022/03/14 09:42:04;;;;;;;12.50;7.68;;;;;;;13.53;57.60;102206.13;3587648;40;20064;-62
2022/03/14 09:44:30;;;;;;;10.82;8.10;;;;;;;13.46;57.84;102210.97;3587031;40;20052;-61
2022/03/14 09:47:01;;;;;;;14.32;7.93;;;;;;;13.41;57.78;102221.13;3589263;40;20048;-62
2022/03/14 09:49:30;;;;;;;14.43;7.50;;;;;;;13.43;57.79;102230.03;3590495;40;20094;-61
2022/03/14 09:51:56;;;;;;;11.02;8.20;;;;;;;13.34;57.94;102230.50;3592084;39;20447;-62
2022/03/14 09:54:22;;;;;;;13.30;8.18;;;;;;;13.36;58.36;102239.41;3591773;40;20087;-61
2022/03/14 09:56:48;;;;;;;13.25;8.32;;;;;;;13.37;58.01;102234.88;3589657;40;20309;-61
2022/03/14 09:59:14;;;;;;;11.63;7.60;;;;;;;13.40;57.75;102246.41;3590582;40;20125;-62
2022/03/14 10:01:41;;;;;;;14.95;8.50;;;;;;;13.31;57.71;102251.38;3589532;40;20052;-60
2022/03/14 10:04:08;;;;;;;11.52;8.00;;;;;;;13.28;57.96;102248.84;3590825;40;20056;-61
2022/03/14 10:06:36;;;;;;;12.85;7.85;;;;;;;13.22;57.80;102256.28;3590834;40;20052;-61
2022/03/14 10:09:03;;;;;;;15.52;7.72;;;;;;;13.12;58.17;102259.50;3589166;40;20047;-62
2022/03/14 10:11:29;;;;;;;12.98;8.10;;;;;;;13.01;58.83;102262.75;3588070;40;20107;-61
2022/03/14 10:13:56;;;;;;;15.52;8.57;;;;;;;12.91;59.36;102264.16;3586812;40;20080;-61
2022/03/14 10:16:21;;;;;;;14.75;8.60;;;;;;;12.89;59.29;102271.44;3588346;40;20055;-61
2022/03/14 10:19:01;;;;;;;12.55;7.10;;;;;;;12.88;59.20;102265.16;3586495;39;20410;-61
2022/03/14 10:21:39;;;;;;;14.30;6.57;;;;;;;12.90;58.58;102257.84;3591888;40;20044;-61
2022/03/14 10:24:07;;;;;;;11.25;6.55;;;;;;;12.98;58.18;102271.88;3590143;40;20415;-61
2022/03/14 10:26:34;;;;;;;9.85;6.78;;;;;;;12.99;58.03;102278.13;3588820;40;20102;-61
2022/03/14 10:29:03;;;;;;;10.10;6.60;;;;;;;12.96;58.22;102278.28;3587078;39;20051;-62
2022/03/14 10:31:45;;;;;;;9.82;7.05;;;;;;;12.94;57.86;102285.56;3590188;39;20040;-61
2022/03/14 10:34:14;;;;;;;8.20;6.47;;;;;;;12.92;57.83;102287.47;3586495;40;20052;-61
2022/03/14 10:36:57;;;;;;;10.43;6.38;;;;;;;12.97;58.21;102288.13;3586568;40;20064;-62
2022/03/14 10:39:30;;;;;;;10.90;6.50;;;;;;;13.09;58.04;102292.91;3586600;40;20391;-61
2022/03/14 10:42:12;;;;;;;12.68;6.80;;;;;;;13.19;57.39;102298.75;3588531;40;20064;-62
2022/03/14 10:44:41;;;;;;;8.50;6.60;;;;;;;13.27;57.05;102307.38;3586045;40;20054;-61
2022/03/14 10:47:13;;;;;;;13.93;6.32;;;;;;;13.37;57.06;102299.69;3585463;40;20102;-62
2022/03/14 10:49:43;;;;;;;11.55;6.97;;;;;;;13.45;57.15;102302.91;3586435;40;20056;-62
2022/03/14 10:52:17;;;;;;;10.07;7.05;;;;;;;13.49;56.75;102315.31;3584456;40;20053;-62
2022/03/14 10:54:43;;;;;;;9.27;6.15;;;;;;;12.77;56.34;102200.03;3585476;40;20074;-61
2022/03/14 10:57:29;;;;;;;10.57;7.13;;;;;;;13.29;57.31;102318.09;3592215;40;20081;-62
2022/03/14 10:59:56;;;;;;;10.52;6.45;;;;;;;13.16;57.08;102307.91;3590040;40;20044;-63
2022/03/14 11:02:27;;;;;;;8.57;6.75;;;;;;;13.26;56.93;102320.94;3590398;40;20063;-61
2022/03/14 11:04:59;;;;;;;11.43;6.03;;;;;;;13.11;56.17;102293.72;3587496;40;20100;-63
2022/03/14 11:07:31;;;;;;;12.95;6.47;;;;;;;13.24;56.67;102286.81;3581893;40;20398;-61
2022/03/14 11:10:00;;;;;;;10.05;5.53;;;;;;;13.86;55.20;102316.09;3590853;40;20069;-63
2022/03/14 11:12:29;;;;;;;12.13;5.45;;;;;;;14.35;53.64;102321.63;3590890;40;20344;-61
2022/03/14 11:15:02;;;;;;;8.57;5.13;;;;;;;14.69;52.36;102299.06;3591104;40;20056;-60
2022/03/14 11:17:32;;;;;;;6.75;4.60;;;;;;;15.16;49.86;102314.47;3591207;40;20048;-61
2022/03/14 11:19:59;;;;;;;7.63;4.43;;;;;;;15.24;49.65;102312.16;3589849;39;20368;-61